Time;durP1;ratioP1;P1;durP2;ratioP2;P2;SDS_P1;SDS_P2;PMS_P1;PMS_P2;Temp;Humidity;BMP_temperature;BMP_pressure;BME280_temperature;BME280_humidity;BME280_pressure;Samples;Min_cycle;Max_cycle;Signal;HPM_P1;HPM_P2
2021/03/08 00:00:34;;;;;;;19.10;6.22;;;;;;;1.35;64.51;100374.72;124928;1112;23397;-57
2021/03/08 00:03:16;;;;;;;22.87;8.17;;;;;;;1.30;65.74;100375.20;124890;1110;23024;-57
2021/03/08 00:05:46;;;;;;;22.35;6.85;;;;;;;1.22;66.44;100381.95;124764;1110;23013;-57
2021/03/08 00:08:15;;;;;;;19.77;6.90;;;;;;;1.08;67.46;100387.64;124885;1112;23145;-56
2021/03/08 00:10:45;;;;;;;26.20;8.87;;;;;;;0.95;67.83;100389.38;124892;1112;23235;-55
2021/03/08 00:13:14;;;;;;;22.67;7.72;;;;;;;0.86;68.12;100385.55;124847;1111;23013;-55
2021/03/08 00:15:43;;;;;;;22.20;7.70;;;;;;;0.75;69.35;100386.45;124918;1112;23109;-53
2021/03/08 00:18:12;;;;;;;26.17;7.97;;;;;;;0.67;69.96;100390.46;124836;1112;27521;-56
2021/03/08 00:20:42;;;;;;;23.77;7.53;;;;;;;0.58;70.27;100383.90;124900;1112;23417;-53
2021/03/08 00:23:11;;;;;;;22.60;7.72;;;;;;;0.51;70.40;100384.75;124880;1112;26443;-53
2021/03/08 00:25:40;;;;;;;25.30;8.70;;;;;;;0.46;70.20;100390.67;124879;1111;27298;-54
2021/03/08 00:28:09;;;;;;;25.83;8.43;;;;;;;0.42;70.56;100384.43;124870;1111;23080;-56
2021/03/08 00:30:38;;;;;;;27.67;9.30;;;;;;;0.40;71.13;100386.02;124846;1112;23084;-57
2021/03/08 00:33:08;;;;;;;25.70;9.50;;;;;;;0.39;71.27;100385.27;124804;1112;22996;-56
2021/03/08 00:35:37;;;;;;;26.27;9.03;;;;;;;0.38;71.25;100391.14;124835;1112;22974;-54
2021/03/08 00:38:06;;;;;;;24.47;8.80;;;;;;;0.36;70.70;100385.27;124940;1110;23193;-55
2021/03/08 00:40:36;;;;;;;25.97;9.17;;;;;;;0.34;71.82;100382.94;124852;1111;23025;-55
2021/03/08 00:43:05;;;;;;;22.20;8.53;;;;;;;0.35;71.93;100381.73;124816;1110;23033;-56
2021/03/08 00:45:34;;;;;;;27.37;10.20;;;;;;;0.34;71.76;100391.18;124824;1110;23059;-54
2021/03/08 00:48:04;;;;;;;25.27;8.97;;;;;;;0.34;72.07;100385.69;124949;1111;23029;-54
2021/03/08 00:50:33;;;;;;;25.70;9.40;;;;;;;0.34;71.64;100387.64;124799;1111;23222;-54
2021/03/08 00:53:02;;;;;;;23.03;7.93;;;;;;;0.33;71.80;100386.10;124762;1111;23245;-56
2021/03/08 00:55:31;;;;;;;21.87;8.40;;;;;;;0.32;72.04;100377.08;124956;1111;24481;-53
2021/03/08 00:58:01;;;;;;;23.60;10.00;;;;;;;0.32;72.69;100379.03;124910;1110;23406;-54
2021/03/08 01:00:31;;;;;;;21.97;7.17;;;;;;;0.32;73.13;100376.29;124897;1110;23029;-54
2021/03/08 01:03:00;;;;;;;24.20;9.17;;;;;;;0.31;73.00;100383.73;125034;1112;23075;-57
2021/03/08 01:05:29;;;;;;;25.23;9.30;;;;;;;0.31;72.50;100364.52;124939;1112;27364;-54
2021/03/08 01:07:58;;;;;;;27.67;10.43;;;;;;;0.31;72.89;100367.27;124907;1112;23460;-53
2021/03/08 01:10:29;;;;;;;22.17;8.73;;;;;;;0.30;73.60;100359.44;124964;1111;23043;-57
2021/03/08 01:12:59;;;;;;;33.10;10.63;;;;;;;0.28;73.20;100359.86;125119;1110;23020;-53
2021/03/08 01:15:28;;;;;;;26.02;9.05;;;;;;;0.28;73.95;100353.58;125208;1111;23028;-57
2021/03/08 01:17:58;;;;;;;24.40;9.23;;;;;;;0.29;74.22;100353.16;124911;1112;23027;-56
2021/03/08 01:20:27;;;;;;;24.40;9.53;;;;;;;0.27;73.84;100350.05;124881;1112;23128;-56
2021/03/08 01:22:56;;;;;;;29.23;10.43;;;;;;;0.27;73.65;100350.05;124997;1110;23004;-55
2021/03/08 01:25:28;;;;;;;23.10;9.37;;;;;;;0.28;73.86;100351.62;124973;1112;26010;-58
2021/03/08 01:27:57;;;;;;;25.87;8.63;;;;;;;0.27;74.23;100350.05;125109;1112;23070;-56
2021/03/08 01:30:31;;;;;;;24.93;9.07;;;;;;;0.27;73.93;100341.81;125037;1110;23031;-54
2021/03/08 01:33:01;;;;;;;26.03;9.60;;;;;;;0.28;74.78;100354.36;124963;1110;23097;-55
2021/03/08 01:35:30;;;;;;;22.67;8.53;;;;;;;0.29;74.19;100350.42;124917;1111;23279;-54
2021/03/08 01:37:59;;;;;;;24.70;8.90;;;;;;;0.29;74.40;100355.15;124982;1112;27765;-53
2021/03/08 01:40:29;;;;;;;25.05;8.95;;;;;;;0.30;74.26;100342.97;124914;1112;23086;-54
2021/03/08 01:42:59;;;;;;;24.50;8.73;;;;;;;0.31;74.13;100352.78;125284;1110;23017;-54
2021/03/08 01:45:30;;;;;;;26.73;8.93;;;;;;;0.31;74.92;100344.54;125041;1110;23029;-55
2021/03/08 01:47:58;;;;;;;26.52;10.30;;;;;;;0.32;74.09;100340.59;124916;1112;26559;-57
2021/03/08 01:50:33;;;;;;;27.97;9.67;;;;;;;0.34;74.56;100336.26;124870;1112;27436;-55
2021/03/08 01:53:03;;;;;;;23.87;7.50;;;;;;;0.34;75.10;100338.22;125017;1112;23024;-55
2021/03/08 01:55:33;;;;;;;26.73;10.43;;;;;;;0.35;75.62;100334.30;124783;1111;23098;-56
2021/03/08 01:58:03;;;;;;;26.35;9.75;;;;;;;0.35;75.31;100337.05;124589;1111;23259;-56
2021/03/08 02:00:34;;;;;;;25.75;9.93;;;;;;;0.34;75.72;100343.70;124442;1110;23025;-55
2021/03/08 02:03:03;;;;;;;24.25;9.05;;;;;;;0.34;75.46;100338.22;124952;1112;23030;-58
2021/03/08 02:05:36;;;;;;;30.43;10.53;;;;;;;0.34;75.88;100335.47;124830;1111;24479;-54
2021/03/08 02:08:08;;;;;;;27.07;10.63;;;;;;;0.34;75.88;100338.22;124937;1112;23019;-56
2021/03/08 02:10:40;;;;;;;26.23;9.83;;;;;;;0.36;75.36;100335.84;124912;1112;24670;-55
2021/03/08 02:13:39;;;;;;;22.33;8.83;;;;;;;0.35;76.40;100335.06;125051;1112;25973;-56
2021/03/08 02:16:13;;;;;;;21.13;8.63;;;;;;;0.35;76.06;100339.79;124807;1112;27670;-54
2021/03/08 02:18:49;;;;;;;23.87;9.53;;;;;;;0.34;76.27;100339.00;124867;1110;23205;-54
2021/03/08 02:21:54;;;;;;;26.73;10.07;;;;;;;0.33;75.88;100331.94;125054;1110;22988;-55
2021/03/08 02:25:01;;;;;;;25.20;10.93;;;;;;;0.33;76.17;100331.94;124896;1112;24670;-54
2021/03/08 02:27:46;;;;;;;26.50;9.83;;;;;;;0.33;77.04;100328.44;124807;1111;24373;-56
2021/03/08 02:30:37;;;;;;;25.97;10.07;;;;;;;0.33;76.93;100333.93;124843;1110;25944;-55
2021/03/08 02:33:09;;;;;;;29.45;11.30;;;;;;;0.32;76.82;100330.40;125004;1112;26088;-57
2021/03/08 02:35:41;;;;;;;29.63;10.30;;;;;;;0.31;77.24;100331.57;125274;1112;23011;-54
2021/03/08 02:38:15;;;;;;;31.70;12.33;;;;;;;0.31;77.04;100328.06;124926;1112;23101;-55
2021/03/08 02:40:50;;;;;;;30.30;11.47;;;;;;;0.30;77.48;100334.73;124914;1112;23222;-54
2021/03/08 02:43:24;;;;;;;24.80;9.17;;;;;;;0.28;77.59;100335.14;125200;1102;26898;-60
2021/03/08 02:45:56;;;;;;;29.27;11.50;;;;;;;0.28;77.69;100326.91;124427;1112;23067;-56
2021/03/08 02:48:27;;;;;;;28.97;10.93;;;;;;;0.29;76.95;100333.19;124425;1112;23220;-56
2021/03/08 02:50:58;;;;;;;24.37;9.93;;;;;;;0.27;78.00;100327.33;124201;1111;23214;-53
2021/03/08 02:53:30;;;;;;;25.10;10.97;;;;;;;0.27;77.29;100335.56;124459;1112;23030;-56
2021/03/08 02:56:02;;;;;;;24.33;10.40;;;;;;;0.25;77.98;100329.70;124532;1113;23526;-57
2021/03/08 02:58:34;;;;;;;26.30;10.20;;;;;;;0.23;77.96;100327.34;124673;1111;23016;-57
2021/03/08 03:01:05;;;;;;;29.53;11.60;;;;;;;0.24;78.21;100328.13;124739;1112;26137;-58
2021/03/08 03:03:38;;;;;;;29.53;12.00;;;;;;;0.24;77.50;100334.40;124456;1112;23135;-58
2021/03/08 03:06:08;;;;;;;25.93;10.33;;;;;;;0.25;77.98;100333.20;124590;1112;23026;-58
2021/03/08 03:08:40;;;;;;;26.25;10.63;;;;;;;0.26;78.29;100343.02;124502;1112;23019;-58
2021/03/08 03:11:10;;;;;;;27.65;10.80;;;;;;;0.26;78.00;100340.27;124556;1111;26698;-58
2021/03/08 03:13:43;;;;;;;29.03;11.80;;;;;;;0.28;77.64;100346.13;124356;1111;24821;-59
2021/03/08 03:16:14;;;;;;;28.13;11.53;;;;;;;0.30;78.41;100345.71;124747;1112;23088;-57
2021/03/08 03:18:49;;;;;;;25.63;10.50;;;;;;;0.30;77.59;100351.98;124486;1112;23070;-57
2021/03/08 03:21:19;;;;;;;26.95;11.30;;;;;;;0.30;77.74;100360.23;124569;1112;23215;-60
2021/03/08 03:23:52;;;;;;;31.50;11.77;;;;;;;0.29;78.45;100361.40;124548;1112;23051;-57
2021/03/08 03:26:23;;;;;;;31.33;12.70;;;;;;;0.30;77.77;100362.19;124400;1112;23067;-59
2021/03/08 03:28:53;;;;;;;23.00;9.70;;;;;;;0.30;78.35;100360.23;124693;1111;26050;-57
2021/03/08 03:31:23;;;;;;;25.03;11.43;;;;;;;0.29;78.18;100357.90;124754;1112;23093;-60
2021/03/08 03:33:53;;;;;;;27.52;10.58;;;;;;;0.28;78.95;100350.83;124512;1112;23072;-57
2021/03/08 03:36:25;;;;;;;30.17;10.78;;;;;;;0.27;78.23;100361.03;124601;1112;23076;-57
2021/03/08 03:38:55;;;;;;;29.97;11.23;;;;;;;0.28;78.69;100365.34;124730;1112;23068;-58
2021/03/08 03:41:25;;;;;;;24.82;9.90;;;;;;;0.26;79.32;100364.98;124475;1112;26016;-58
2021/03/08 03:43:55;;;;;;;29.40;10.95;;;;;;;0.26;79.02;100364.98;124571;1113;23027;-56
2021/03/08 03:46:24;;;;;;;29.60;11.67;;;;;;;0.27;78.76;100372.02;124533;1113;26635;-56
2021/03/08 03:48:53;;;;;;;29.67;11.38;;;;;;;0.27;78.96;100374.00;124458;1112;23226;-57
2021/03/08 03:51:22;;;;;;;25.80;10.83;;;;;;;0.24;79.52;100364.60;124472;1112;27335;-57
2021/03/08 03:53:51;;;;;;;28.17;11.10;;;;;;;0.24;78.79;100369.30;124459;1113;27306;-59
2021/03/08 03:56:24;;;;;;;26.45;10.40;;;;;;;0.23;80.01;100373.25;124391;1111;23017;-57
2021/03/08 03:58:58;;;;;;;28.40;9.60;;;;;;;0.21;79.99;100373.64;124454;1112;23145;-59
2021/03/08 04:01:35;;;;;;;24.97;9.67;;;;;;;0.20;80.00;100385.03;124312;1112;27348;-54
2021/03/08 04:04:09;;;;;;;28.05;10.90;;;;;;;0.18;79.45;100382.70;124532;1112;27287;-60
2021/03/08 04:06:42;;;;;;;24.23;9.20;;;;;;;0.18;80.26;100384.66;124779;1112;26016;-58
2021/03/08 04:09:13;;;;;;;23.50;10.10;;;;;;;0.16;80.94;100396.05;124470;1112;23071;-54
2021/03/08 04:11:44;;;;;;;25.53;9.80;;;;;;;0.13;80.48;100399.59;124595;1112;23076;-56
2021/03/08 04:14:17;;;;;;;26.40;10.87;;;;;;;0.14;79.89;100405.88;124646;1111;23011;-58
2021/03/08 04:16:51;;;;;;;25.07;9.53;;;;;;;0.13;81.09;100399.59;124549;1112;23229;-56
2021/03/08 04:19:24;;;;;;;25.37;10.33;;;;;;;0.12;81.26;100400.00;124527;1111;23024;-58
2021/03/08 04:21:58;;;;;;;26.83;11.43;;;;;;;0.13;81.20;100404.30;124480;1112;22984;-58
2021/03/08 04:24:30;;;;;;;27.53;11.17;;;;;;;0.12;81.22;100406.28;124509;1111;23113;-55
2021/03/08 04:27:06;;;;;;;29.93;11.83;;;;;;;0.12;80.41;100402.75;124553;1112;23222;-57
2021/03/08 04:29:37;;;;;;;26.25;10.55;;;;;;;0.10;80.58;100400.42;124840;1110;23067;-56
2021/03/08 04:32:09;;;;;;;26.73;10.97;;;;;;;0.12;80.27;100402.75;124509;1112;23073;-58
2021/03/08 04:34:39;;;;;;;29.03;11.23;;;;;;;0.11;80.62;100414.91;124669;1112;23030;-58
2021/03/08 04:37:09;;;;;;;31.35;12.60;;;;;;;0.11;80.94;100412.94;124456;1112;23217;-58
2021/03/08 04:39:40;;;;;;;29.95;12.00;;;;;;;0.11;80.87;100418.44;124476;1112;23027;-58
2021/03/08 04:42:12;;;;;;;29.43;11.43;;;;;;;0.12;80.93;100419.22;124275;1112;22988;-59
2021/03/08 04:44:44;;;;;;;26.37;11.57;;;;;;;0.11;81.49;100418.44;124438;1112;23024;-57
2021/03/08 04:47:17;;;;;;;27.63;12.37;;;;;;;0.10;80.64;100430.61;124539;1112;23016;-57
2021/03/08 04:49:48;;;;;;;28.80;11.93;;;;;;;0.09;81.23;100431.78;124876;1112;26127;-56
2021/03/08 04:52:20;;;;;;;30.73;12.73;;;;;;;0.09;81.39;100442.77;124463;1112;23090;-55
2021/03/08 04:54:50;;;;;;;31.33;12.93;;;;;;;0.08;80.60;100438.47;124511;1112;23083;-55
2021/03/08 04:57:22;;;;;;;31.95;13.83;;;;;;;0.08;80.73;100441.22;124409;1112;23077;-57
2021/03/08 04:59:53;;;;;;;28.90;13.07;;;;;;;0.09;80.36;100442.77;124494;1111;23117;-56
2021/03/08 05:02:24;;;;;;;35.35;14.30;;;;;;;0.10;80.37;100449.83;124504;1111;23013;-57
2021/03/08 05:04:55;;;;;;;37.43;14.47;;;;;;;0.11;80.90;100451.38;124701;1112;23079;-60
2021/03/08 05:07:25;;;;;;;35.13;15.03;;;;;;;0.13;80.86;100457.24;124359;1112;23014;-56
2021/03/08 05:09:55;;;;;;;33.78;14.68;;;;;;;0.15;80.57;100448.59;124345;1112;23113;-55
2021/03/08 05:12:28;;;;;;;34.30;14.98;;;;;;;0.14;80.60;100453.33;124513;1112;23033;-57
2021/03/08 05:14:59;;;;;;;36.93;14.17;;;;;;;0.15;80.26;100456.83;124505;1111;22983;-57
2021/03/08 05:17:29;;;;;;;32.50;13.53;;;;;;;0.14;80.77;100463.52;124545;1112;23024;-54
2021/03/08 05:20:00;;;;;;;32.33;14.07;;;;;;;0.11;80.38;100462.35;124544;1111;23030;-58
2021/03/08 05:22:30;;;;;;;36.13;14.07;;;;;;;0.07;80.22;100469.05;124436;1112;27348;-61
2021/03/08 05:24:58;;;;;;;;;;;;;;;0.06;80.69;100473.78;124649;1112;23070;-59
2021/03/08 05:27:27;;;;;;;37.00;14.23;;;;;;;0.05;79.96;100482.39;124466;1112;21533;-57
2021/03/08 05:29:58;;;;;;;35.27;14.80;;;;;;;0.03;80.59;100482.80;124582;1110;23083;-58
2021/03/08 05:32:32;;;;;;;33.17;13.90;;;;;;;0.03;79.52;100485.55;124475;1112;23027;-57
2021/03/08 05:35:02;;;;;;;35.73;14.77;;;;;;;0.01;80.38;100485.17;124602;1112;26105;-59
2021/03/08 05:37:34;;;;;;;30.30;11.97;;;;;;;-0.04;80.07;100480.87;124520;1112;27320;-59
2021/03/08 05:40:11;;;;;;;32.75;14.00;;;;;;;-0.10;80.25;100484.44;124618;1112;26149;-59
2021/03/08 05:42:40;;;;;;;31.43;12.90;;;;;;;-0.17;80.39;100490.77;124514;1112;23017;-57
2021/03/08 05:45:19;;;;;;;33.87;11.80;;;;;;;-0.24;80.21;100493.55;124436;1112;23027;-60
2021/03/08 05:48:09;;;;;;;32.07;11.57;;;;;;;-0.30;80.20;100497.10;124463;1112;24668;-58
2021/03/08 05:51:22;;;;;;;32.60;12.37;;;;;;;-0.36;79.35;100495.95;124492;1110;27684;-57
2021/03/08 05:54:46;;;;;;;36.90;13.80;;;;;;;-0.40;79.93;100501.47;124229;1115;22998;-60
2021/03/08 05:57:25;;;;;;;34.00;13.20;;;;;;;-0.43;79.99;100504.99;123723;1118;26617;-57
2021/03/08 06:00:17;;;;;;;31.30;12.90;;;;;;;-0.43;79.63;100499.51;123864;1118;23171;-57
2021/03/08 06:02:57;;;;;;;29.60;10.80;;;;;;;-0.44;79.99;100505.40;123878;1118;23118;-59
2021/03/08 06:05:57;;;;;;;27.95;11.30;;;;;;;-0.47;79.47;100509.71;123807;1118;27325;-59
2021/03/08 06:09:13;;;;;;;26.90;10.53;;;;;;;-0.50;79.21;100513.27;123536;1122;23263;-58
2021/03/08 06:11:47;;;;;;;27.97;10.60;;;;;;;-0.53;79.73;100516.00;123547;1122;26111;-57
2021/03/08 06:14:20;;;;;;;25.37;9.23;;;;;;;-0.53;80.15;100522.27;123627;1122;23144;-56
2021/03/08 06:16:50;;;;;;;28.20;9.90;;;;;;;-0.55;79.38;100519.15;123711;1122;26169;-58
2021/03/08 06:19:20;;;;;;;27.63;10.13;;;;;;;-0.53;79.77;100530.50;124629;1122;27957;-60
2021/03/08 06:21:49;;;;;;;26.30;9.75;;;;;;;-0.50;79.62;100534.42;123622;1122;24300;-57
2021/03/08 06:24:20;;;;;;;32.53;10.95;;;;;;;-0.48;79.84;100543.81;123572;1122;27823;-61
2021/03/08 06:26:52;;;;;;;25.55;9.50;;;;;;;-0.47;79.62;100550.85;123547;1122;26578;-64
2021/03/08 06:29:23;;;;;;;20.97;8.13;;;;;;;-0.44;79.36;100554.77;123720;1118;23056;-59
2021/03/08 06:31:53;;;;;;;29.07;9.67;;;;;;;-0.43;80.09;100557.11;123740;1118;23065;-58
2021/03/08 06:34:22;;;;;;;22.93;7.03;;;;;;;-0.40;79.64;100559.06;123405;1115;23237;-59
2021/03/08 06:36:53;;;;;;;22.70;7.17;;;;;;;-0.36;79.91;100568.06;123822;1115;23104;-57
2021/03/08 06:39:23;;;;;;;18.67;5.47;;;;;;;-0.32;79.46;100570.78;123846;1114;23109;-59
2021/03/08 06:41:51;;;;;;;18.00;5.20;;;;;;;-0.30;79.07;100574.70;123847;1115;26004;-58
2021/03/08 06:44:21;;;;;;;23.43;5.63;;;;;;;-0.28;79.72;100583.31;123936;1115;23058;-59
2021/03/08 06:46:50;;;;;;;16.83;4.33;;;;;;;-0.26;79.09;100588.40;124034;1111;26016;-58
2021/03/08 06:49:20;;;;;;;18.25;4.47;;;;;;;-0.20;78.98;100600.52;124792;1110;23068;-58
2021/03/08 06:52:09;;;;;;;18.57;4.97;;;;;;;-0.14;79.42;100596.19;124068;1111;23058;-57
2021/03/08 06:54:39;;;;;;;18.10;4.67;;;;;;;-0.08;78.61;100608.31;124317;1112;23057;-57
2021/03/08 06:57:26;;;;;;;15.95;4.00;;;;;;;-0.05;79.02;100604.78;124256;1112;26031;-57
2021/03/08 06:59:56;;;;;;;16.00;3.73;;;;;;;-0.02;78.46;100606.72;124228;1111;23088;-57
2021/03/08 07:02:37;;;;;;;11.30;2.87;;;;;;;0.00;78.25;100613.37;125050;1112;23226;-57
2021/03/08 07:05:08;;;;;;;11.43;3.33;;;;;;;0.04;78.41;100613.39;124224;1112;23085;-58
2021/03/08 07:07:52;;;;;;;11.23;3.10;;;;;;;0.09;78.51;100626.68;124462;1111;24664;-58
2021/03/08 07:10:33;;;;;;;15.97;2.87;;;;;;;0.16;78.17;100626.66;124273;1112;23072;-57
2021/03/08 07:13:03;;;;;;;15.30;2.93;;;;;;;0.18;78.95;100621.55;124882;1111;23409;-58
2021/03/08 07:15:32;;;;;;;11.85;2.72;;;;;;;0.23;78.45;100631.34;125044;1112;26344;-59
2021/03/08 07:18:08;;;;;;;15.83;4.10;;;;;;;0.27;78.31;100638.36;124301;1112;23023;-57
2021/03/08 07:20:38;;;;;;;12.00;3.35;;;;;;;0.32;78.82;100639.91;124358;1111;23067;-58
2021/03/08 07:23:07;;;;;;;10.93;2.50;;;;;;;0.35;78.18;100634.39;124215;1112;23080;-57
2021/03/08 07:25:36;;;;;;;12.20;2.00;;;;;;;0.38;78.60;100643.80;124348;1112;27541;-61
2021/03/08 07:28:06;;;;;;;14.20;3.23;;;;;;;0.39;78.33;100642.62;124188;1110;27493;-60
2021/03/08 07:30:39;;;;;;;15.85;3.58;;;;;;;0.44;78.60;100644.94;124402;1112;23085;-59
2021/03/08 07:33:13;;;;;;;17.00;3.57;;;;;;;0.47;78.18;100641.41;124444;1112;23067;-57
2021/03/08 07:35:45;;;;;;;12.60;3.47;;;;;;;0.50;77.68;100644.13;124310;1112;23190;-59
2021/03/08 07:38:15;;;;;;;12.03;2.63;;;;;;;0.51;77.58;100647.66;125018;1111;23088;-59
2021/03/08 07:40:46;;;;;;;13.33;3.60;;;;;;;0.52;78.28;100641.76;124402;1112;23067;-60
2021/03/08 07:43:24;;;;;;;11.68;3.00;;;;;;;0.57;77.63;100637.81;124709;1112;23217;-58
2021/03/08 07:45:54;;;;;;;13.10;3.33;;;;;;;0.64;78.13;100641.28;124409;1112;23040;-60
2021/03/08 07:48:23;;;;;;;13.80;3.73;;;;;;;0.75;78.88;100654.96;124176;1112;23222;-60
2021/03/08 07:50:53;;;;;;;16.90;4.13;;;;;;;0.85;78.01;100664.34;124162;1112;23087;-59
2021/03/08 07:53:28;;;;;;;17.33;4.10;;;;;;;0.93;77.96;100663.89;124626;1111;23083;-59
2021/03/08 07:55:58;;;;;;;19.20;5.17;;;;;;;1.00;77.80;100658.32;124469;1111;23013;-60
2021/03/08 07:58:32;;;;;;;15.43;4.75;;;;;;;1.06;78.12;100675.16;124169;1112;23013;-61
2021/03/08 08:01:03;;;;;;;11.80;3.20;;;;;;;1.11;77.06;100669.24;124290;1112;23028;-57
2021/03/08 08:03:33;;;;;;;15.30;3.33;;;;;;;1.13;77.22;100677.87;124665;1111;23008;-58
2021/03/08 08:06:03;;;;;;;16.70;4.35;;;;;;;1.17;77.81;100678.63;124323;1112;23031;-58
2021/03/08 08:08:35;;;;;;;16.20;5.05;;;;;;;1.23;77.13;100685.25;124622;1112;23218;-58
2021/03/08 08:11:06;;;;;;;11.17;3.80;;;;;;;1.24;76.58;100684.08;124672;1112;23107;-61
2021/03/08 08:13:42;;;;;;;15.27;4.43;;;;;;;1.23;76.73;100682.50;124346;1112;23208;-61
2021/03/08 08:16:13;;;;;;;15.67;4.27;;;;;;;1.21;76.96;100680.16;124198;1112;23014;-59
2021/03/08 08:18:48;;;;;;;17.10;4.60;;;;;;;1.21;76.65;100690.38;124256;1112;23020;-60
2021/03/08 08:21:21;;;;;;;16.23;3.70;;;;;;;1.17;77.31;100693.16;125716;1111;23007;-58
2021/03/08 08:23:57;;;;;;;14.57;4.17;;;;;;;1.17;77.16;100698.66;124925;1111;25906;-59
2021/03/08 08:26:27;;;;;;;12.63;2.40;;;;;;;1.18;76.37;100691.20;124500;1112;23103;-57
2021/03/08 08:28:57;;;;;;;11.87;2.17;;;;;;;1.23;76.71;100699.00;124488;1111;26060;-60
2021/03/08 08:31:27;;;;;;;11.05;1.80;;;;;;;1.29;76.54;100695.41;124520;1111;24014;-59
2021/03/08 08:33:56;;;;;;;11.78;2.10;;;;;;;1.35;75.96;100704.01;124684;1112;22989;-58
2021/03/08 08:36:27;;;;;;;13.00;2.83;;;;;;;1.38;76.69;100703.20;124583;1112;23083;-59
2021/03/08 08:39:23;;;;;;;13.17;3.50;;;;;;;1.41;76.23;100696.88;124750;1111;23068;-56
2021/03/08 08:42:19;;;;;;;14.17;3.17;;;;;;;1.40;76.51;100700.84;124070;1114;23081;-57
2021/03/08 08:44:50;;;;;;;14.40;3.85;;;;;;;1.36;76.32;100709.13;124219;1114;23168;-58
2021/03/08 08:47:29;;;;;;;14.57;4.93;;;;;;;1.34;76.53;100721.72;124232;1115;26395;-58
2021/03/08 08:50:02;;;;;;;17.90;4.83;;;;;;;1.25;76.34;100715.88;124391;1114;27300;-56
2021/03/08 08:52:50;;;;;;;18.87;5.83;;;;;;;1.21;76.23;100731.63;124970;1114;23018;-59
2021/03/08 08:55:22;;;;;;;15.90;4.77;;;;;;;1.11;76.72;100719.52;124287;1114;23077;-59
2021/03/08 08:58:19;;;;;;;16.10;4.33;;;;;;;1.04;76.60;100725.06;124431;1113;26389;-60
2021/03/08 09:01:41;;;;;;;15.50;3.60;;;;;;;1.06;76.96;100727.40;124210;1114;22961;-59
2021/03/08 09:04:12;;;;;;;14.77;3.93;;;;;;;1.12;76.76;100732.07;124357;1114;27125;-58
2021/03/08 09:06:55;;;;;;;14.00;4.33;;;;;;;1.18;77.06;100727.70;124183;1115;25715;-59
2021/03/08 09:09:40;;;;;;;16.83;4.53;;;;;;;1.22;76.77;100731.21;124034;1115;27451;-60
2021/03/08 09:12:25;;;;;;;13.67;3.77;;;;;;;1.20;76.45;100728.08;124569;1114;23024;-59
2021/03/08 09:14:56;;;;;;;14.53;3.40;;;;;;;1.21;76.33;100723.38;124011;1115;23024;-60
2021/03/08 09:17:27;;;;;;;14.83;3.80;;;;;;;1.26;77.14;100731.97;124068;1112;23068;-60
2021/03/08 09:20:22;;;;;;;14.65;3.20;;;;;;;1.23;75.82;100734.75;124697;1112;23178;-60
2021/03/08 09:22:53;;;;;;;20.70;5.60;;;;;;;1.20;76.21;100739.09;124867;1112;26462;-61
2021/03/08 09:25:25;;;;;;;16.03;4.80;;;;;;;1.23;76.79;100741.04;124680;1112;24711;-60
2021/03/08 09:28:12;;;;;;;19.00;4.63;;;;;;;1.26;76.13;100745.72;124406;1112;23067;-59
2021/03/08 09:30:43;;;;;;;16.40;4.50;;;;;;;1.23;76.31;100743.00;124365;1112;23067;-60
2021/03/08 09:33:15;;;;;;;16.70;4.93;;;;;;;1.23;76.29;100748.50;124772;1111;23242;-62
2021/03/08 09:35:47;;;;;;;16.80;5.37;;;;;;;1.24;76.63;100752.83;125034;1112;23059;-62
2021/03/08 09:38:18;;;;;;;16.20;5.07;;;;;;;1.27;76.23;100752.01;124403;1110;27489;-61
2021/03/08 09:40:49;;;;;;;17.97;4.23;;;;;;;1.31;75.53;100750.80;124320;1112;24818;-60
2021/03/08 09:43:24;;;;;;;15.20;4.53;;;;;;;1.35;75.76;100753.52;124398;1111;26442;-61
2021/03/08 09:45:58;;;;;;;16.53;3.90;;;;;;;1.41;75.97;100758.19;124762;1112;27810;-62
2021/03/08 09:48:28;;;;;;;14.70;3.60;;;;;;;1.38;75.79;100766.48;124544;1110;26500;-60
2021/03/08 09:51:08;;;;;;;14.23;3.50;;;;;;;1.23;75.21;100762.25;124778;1112;23198;-62
2021/03/08 09:53:39;;;;;;;15.53;4.22;;;;;;;1.09;75.73;100768.64;124406;1111;23046;-60
2021/03/08 09:56:10;;;;;;;16.93;4.73;;;;;;;1.04;75.18;100773.76;124464;1112;24694;-59
2021/03/08 09:58:40;;;;;;;18.60;3.73;;;;;;;1.03;74.46;100769.45;124578;1111;24651;-60
2021/03/08 10:01:17;;;;;;;18.95;5.03;;;;;;;1.00;75.33;100775.75;124308;1112;23096;-62
2021/03/08 10:03:47;;;;;;;15.53;3.30;;;;;;;1.04;74.99;100760.80;124427;1111;25880;-62
2021/03/08 10:06:26;;;;;;;19.73;5.07;;;;;;;1.11;74.95;100762.73;124344;1112;23179;-61
2021/03/08 10:08:56;;;;;;;17.03;4.47;;;;;;;1.17;74.72;100774.87;124406;1111;23209;-61
2021/03/08 10:11:27;;;;;;;16.17;3.72;;;;;;;1.15;73.71;100778.03;124316;1112;23036;-60
2021/03/08 10:13:57;;;;;;;18.53;4.60;;;;;;;1.16;73.88;100773.31;124348;1112;26974;-61
2021/03/08 10:16:27;;;;;;;17.17;4.25;;;;;;;1.19;73.94;100772.50;125133;1112;23531;-61
2021/03/08 10:19:06;;;;;;;17.57;3.75;;;;;;;1.24;72.93;100770.09;124404;1112;23235;-61
2021/03/08 10:21:43;;;;;;;18.47;3.67;;;;;;;1.28;73.00;100775.59;124397;1112;23032;-61
2021/03/08 10:24:13;;;;;;;14.33;3.27;;;;;;;1.32;73.84;100774.39;124490;1111;26044;-59
2021/03/08 10:26:46;;;;;;;15.30;4.45;;;;;;;1.39;73.17;100771.56;124654;1112;23235;-61
2021/03/08 10:29:16;;;;;;;16.07;3.20;;;;;;;1.50;72.43;100769.53;124918;1112;23234;-61
2021/03/08 10:31:46;;;;;;;15.98;3.52;;;;;;;1.55;72.45;100771.08;124363;1110;23089;-61
2021/03/08 10:34:15;;;;;;;13.20;3.10;;;;;;;1.60;71.57;100773.38;124349;1112;23236;-61
2021/03/08 10:36:45;;;;;;;10.20;2.47;;;;;;;1.64;70.58;100782.38;124360;1112;23044;-60
2021/03/08 10:39:19;;;;;;;10.03;2.07;;;;;;;1.69;71.87;100779.21;124228;1112;23091;-60
2021/03/08 10:41:49;;;;;;;13.00;2.20;;;;;;;1.73;71.60;100785.47;124761;1112;23072;-60
2021/03/08 10:44:21;;;;;;;;;;;;;;;1.75;71.02;100788.59;124704;1111;23070;-60
2021/03/08 10:46:50;;;;;;;5.00;0.90;;;;;;;1.83;68.72;100787.34;124250;1112;21530;-62
2021/03/08 10:49:20;;;;;;;4.50;0.97;;;;;;;1.93;69.08;100782.92;124298;1113;22991;-58
2021/03/08 10:51:50;;;;;;;9.70;1.60;;;;;;;2.03;69.41;100782.06;124813;1112;23023;-61
2021/03/08 10:54:20;;;;;;;13.18;2.00;;;;;;;2.13;68.94;100784.69;124395;1111;26178;-58
2021/03/08 10:57:00;;;;;;;11.80;2.73;;;;;;;2.17;68.74;100782.68;124345;1112;23015;-59
2021/03/08 10:59:30;;;;;;;10.30;1.80;;;;;;;2.20;68.42;100776.36;124792;1111;23203;-59
2021/03/08 11:02:04;;;;;;;5.27;1.10;;;;;;;2.22;67.14;100784.21;124453;1111;26010;-58
2021/03/08 11:04:34;;;;;;;9.03;1.80;;;;;;;2.26;68.59;100785.74;124360;1112;24064;-61
2021/03/08 11:07:03;;;;;;;7.33;1.40;;;;;;;2.33;68.42;100787.65;124685;1111;23461;-59
2021/03/08 11:09:34;;;;;;;8.78;1.62;;;;;;;2.32;68.07;100784.10;124424;1112;23014;-59
2021/03/08 11:12:05;;;;;;;8.10;1.27;;;;;;;2.28;67.61;100790.84;124241;1111;23110;-60
2021/03/08 11:14:49;;;;;;;6.50;1.10;;;;;;;2.21;66.49;100796.44;124341;1112;26409;-59
2021/03/08 11:17:29;;;;;;;5.70;1.20;;;;;;;2.18;66.13;100799.99;124100;1111;27237;-58
2021/03/08 11:20:12;;;;;;;4.43;1.00;;;;;;;2.17;64.07;100781.92;124285;1112;23205;-58
2021/03/08 11:22:56;;;;;;;7.90;1.30;;;;;;;2.15;63.18;100793.33;124848;1112;23454;-59
2021/03/08 11:25:38;;;;;;;8.27;1.10;;;;;;;2.23;65.04;100792.09;124372;1111;23068;-60
2021/03/08 11:28:10;;;;;;;7.23;1.03;;;;;;;2.32;65.37;100784.10;124658;1112;23018;-61
2021/03/08 11:30:40;;;;;;;6.00;1.07;;;;;;;2.42;64.02;100777.69;124167;1111;27420;-59
2021/03/08 11:33:11;;;;;;;6.55;1.17;;;;;;;2.50;63.99;100777.62;125926;1112;23122;-59
2021/03/08 11:35:42;;;;;;;6.47;1.10;;;;;;;2.50;63.78;100780.38;124933;1111;24834;-58
2021/03/08 11:38:13;;;;;;;6.33;0.87;;;;;;;2.53;64.28;100777.57;125159;1111;23142;-60
2021/03/08 11:40:42;;;;;;;;;;;;;;;2.66;63.73;100772.30;124221;1112;23084;-57
2021/03/08 11:43:12;;;;;;;7.23;1.40;;;;;;;2.75;62.74;100776.11;124216;1111;21501;-59